Superstar Express — 3FFX9 — position and weather

sailwx.info

Track history (hours):
 
Tides and Currents Weather Stations Pressure Air Temp Water Temp Dewpoint Dewpoint Depression Visibility Wind Speed Wind Dir Waves Ship Positions

Superstar Express

Operator: P & O Irish Sea

Last reported at 2020-Apr-02 02:30 UTC. Time now 2020-Apr-02 04:14 UTC.
Position N 34°38' E 135°17'.

Length 183 m; draft 8 m.

Type: Cargo ship. MMSI: 351360000.

Date/timePositionNaut miles runAvg speedWind from/ knotsBaromVisibWave heightAir tempDewpointWater temp
2020-Apr-02 02:30N 34°38' E 135°17'1 2.3
2020-Apr-02 02:00N 34°37' E 135°16'28 9.2
2020-Apr-01 23:01N 34°36' E 134°43'611.6
2020-Apr-01 22:31N 34°40' E 134°47'3 2.8
2020-Apr-01 21:29N 34°43' E 134°49'0 0.0
2020-Apr-01 20:59N 34°43' E 134°49'0 0.0
2020-Apr-01 18:29N 34°43' E 134°49'0 0.0
2020-Apr-01 17:59N 34°43' E 134°49'0 0.0
2020-Apr-01 16:56N 34°43' E 134°49'0 0.0
2020-Apr-01 16:29N 34°43' E 134°49'0 0.0
2020-Apr-01 10:29N 34°43' E 134°49'0 0.0
2020-Apr-01 07:59N 34°43' E 134°49'0 0.0
2020-Apr-01 07:29N 34°43' E 134°49'0 0.0
2020-Mar-31 21:59N 34°43' E 134°49'0 0.0
2020-Mar-31 20:59N 34°43' E 134°49'0 0.0
2020-Mar-31 20:29N 34°43' E 134°49'0 0.0
2020-Mar-31 17:59N 34°43' E 134°49'0 0.0
2020-Mar-31 16:29N 34°43' E 134°49'0 0.0
2020-Mar-31 15:59N 34°43' E 134°49'0 0.0
2020-Mar-31 11:29N 34°43' E 134°49'0 0.0
2020-Mar-31 10:59N 34°43' E 134°49'0 0.0
2020-Mar-31 09:59N 34°43' E 134°49'0 0.0
2020-Mar-31 09:29N 34°43' E 134°49'0 0.0
2020-Mar-31 08:29N 34°43' E 134°49'0 0.0
2020-Mar-31 07:29N 34°43' E 134°49'0 0.0
2020-Mar-31 06:29N 34°43' E 134°49'0 0.0
2020-Mar-31 04:59N 34°43' E 134°49'0 0.0
2020-Mar-31 04:29N 34°43' E 134°49'0 0.0
2020-Mar-31 03:29N 34°43' E 134°49'0 0.0
2020-Mar-31 00:59N 34°43' E 134°49'0 0.0
2020-Mar-30 23:29N 34°43' E 134°49'0 0.0
2020-Mar-30 21:29N 34°43' E 134°49'0 0.0
2020-Mar-30 20:59N 34°43' E 134°49'0 0.0
2020-Mar-30 17:29N 34°43' E 134°49'0 0.0
2020-Mar-30 16:29N 34°43' E 134°49'0 0.0
2020-Mar-30 14:29N 34°43' E 134°49'0 0.0
2020-Mar-30 13:59N 34°43' E 134°49'0 0.0
2020-Mar-30 11:59N 34°43' E 134°49'0 0.0
2020-Mar-30 10:29N 34°43' E 134°49'0 0.0
2020-Mar-30 08:29N 34°43' E 134°49'0 0.0
2020-Mar-30 07:59N 34°43' E 134°49'0 0.0
2020-Mar-30 05:59N 34°43' E 134°49'0 0.0
2020-Mar-30 05:29N 34°43' E 134°49'0 0.0
2020-Mar-30 04:29N 34°43' E 134°49'0 0.0
2020-Mar-30 01:59N 34°43' E 134°49'0 0.0
2020-Mar-30 01:29N 34°43' E 134°49'0 0.0
2020-Mar-29 22:29N 34°43' E 134°49'0 0.0
2020-Mar-29 21:29N 34°43' E 134°49'0 0.0
2020-Mar-29 20:29N 34°43' E 134°49'0 0.0
2020-Mar-29 19:29N 34°43' E 134°49'0 0.0
2020-Mar-29 18:59N 34°43' E 134°49'0 0.0
2020-Mar-29 17:59N 34°43' E 134°49'0 0.0
2020-Mar-29 17:29N 34°43' E 134°49'0 0.0
2020-Mar-29 16:29N 34°43' E 134°49'0 0.0
2020-Mar-29 14:29N 34°43' E 134°49'0 0.0
2020-Mar-29 13:29N 34°43' E 134°49'0 0.0
2020-Mar-29 12:59N 34°43' E 134°49'0 0.0
2020-Mar-29 12:26N 34°43' E 134°49'0 0.0
2020-Mar-29 11:29N 34°43' E 134°49'0 0.0
2020-Mar-29 08:59N 34°43' E 134°49'0 0.0
2020-Mar-29 03:29N 34°43' E 134°49'0 0.0
2020-Mar-29 02:29N 34°43' E 134°49'0 0.0
2020-Mar-28 23:59N 34°43' E 134°49'0 0.0
2020-Mar-28 23:29N 34°43' E 134°49'2 0.9
2020-Mar-28 21:00N 34°41' E 134°47'0 0.0
2020-Mar-28 19:30N 34°41' E 134°47'0 0.0
2020-Mar-28 15:30N 34°41' E 134°47'0 0.0
2020-Mar-28 12:30N 34°41' E 134°47'0 0.1
2020-Mar-28 12:00N 34°41' E 134°47'0 0.0
2020-Mar-28 11:30N 34°41' E 134°47'0 0.0
2020-Mar-28 08:30N 34°41' E 134°47'0 0.0
2020-Mar-28 06:30N 34°41' E 134°47'0 0.0
2020-Mar-28 06:00N 34°41' E 134°47'0 0.0
2020-Mar-28 03:00N 34°41' E 134°47'0 0.1
2020-Mar-28 02:30N 34°41' E 134°47'0 0.0
2020-Mar-28 02:00N 34°41' E 134°47'0 0.0
2020-Mar-28 01:00N 34°41' E 134°47'0 0.0
2020-Mar-27 22:30N 34°41' E 134°47'0 0.0
2020-Mar-27 21:30N 34°41' E 134°47'0 0.0
2020-Mar-27 17:00N 34°41' E 134°47'0 0.0
2020-Mar-27 16:30N 34°41' E 134°47'0 0.0
2020-Mar-27 16:00N 34°41' E 134°47'0 0.1
2020-Mar-27 15:00N 34°41' E 134°47'0 0.1
2020-Mar-27 13:30N 34°41' E 134°47'0 0.0
2020-Mar-27 12:30N 34°41' E 134°47'0 0.0
2020-Mar-27 12:00N 34°41' E 134°47'0 0.1
2020-Mar-27 10:30N 34°41' E 134°47'2 3.6
2020-Mar-27 10:00N 34°40' E 134°48'20 9.8
2020-Mar-27 08:00N 34°36' E 135°11'11 5.6
2020-Mar-27 06:00N 34°38' E 135°25'0 0.0
2020-Mar-27 03:27N 34°38' E 135°25'0 0.0
2020-Mar-26 21:27N 34°38' E 135°25'0 0.0
2020-Mar-26 20:57N 34°38' E 135°25'0 0.0
2020-Mar-26 17:57N 34°38' E 135°25'0 0.0
2020-Mar-26 17:27N 34°38' E 135°25'0 0.0
2020-Mar-26 14:57N 34°38' E 135°25'0 0.0
2020-Mar-26 13:27N 34°38' E 135°25'0 0.0
2020-Mar-26 10:57N 34°38' E 135°25'0 0.0
2020-Mar-26 09:51N 34°38' E 135°25'0 0.0
2020-Mar-26 09:27N 34°38' E 135°25'0 0.0
2020-Mar-26 07:57N 34°38' E 135°25'0 0.0
2020-Mar-26 07:27N 34°38' E 135°25'0 0.0
2020-Mar-26 07:00N 34°38' E 135°25'0 0.0
2020-Mar-26 06:30N 34°38' E 135°25'0 0.0
2020-Mar-26 05:57N 34°38' E 135°25'0 0.0
2020-Mar-26 05:27N 34°38' E 135°25'0 0.0
2020-Mar-26 04:30N 34°38' E 135°25'0 0.0
2020-Mar-26 03:27N 34°38' E 135°25'0 0.0
2020-Mar-25 22:51N 34°38' E 135°25'0 0.0
2020-Mar-25 20:27N 34°38' E 135°25'0 0.0
2020-Mar-25 15:27N 34°38' E 135°25'0 0.0
2020-Mar-25 13:30N 34°38' E 135°25'0 0.0
2020-Mar-25 12:57N 34°38' E 135°25'0 0.0
2020-Mar-25 10:27N 34°38' E 135°25'0 0.0
2020-Mar-25 08:27N 34°38' E 135°25'0 0.0
2020-Mar-25 07:57N 34°38' E 135°25'0 0.0
2020-Mar-25 05:21N 34°38' E 135°25'0 0.0
2020-Mar-25 01:09N 34°38' E 135°25'0 0.0
2020-Mar-25 00:57N 34°38' E 135°25'0 0.0
2020-Mar-25 00:27N 34°38' E 135°25'0 0.0
2020-Mar-24 23:00N 34°38' E 135°25'0 0.0
2020-Mar-24 21:27N 34°38' E 135°25'0 0.0
2020-Mar-24 19:57N 34°38' E 135°25'0 0.0
2020-Mar-24 19:27N 34°38' E 135°25'0 0.0
2020-Mar-24 18:51N 34°38' E 135°25'0 0.0
2020-Mar-24 17:27N 34°38' E 135°25'0 0.0
2020-Mar-24 16:51N 34°38' E 135°25'0 0.0
2020-Mar-24 15:27N 34°38' E 135°25'0 0.0
2020-Mar-24 13:51N 34°38' E 135°25'0 0.0
2020-Mar-24 13:27N 34°38' E 135°25'0 0.0
2020-Mar-24 12:45N 34°38' E 135°25'0 0.0
2020-Mar-24 09:57N 34°38' E 135°25'0 0.0
2020-Mar-24 08:27N 34°38' E 135°25'0 0.0
2020-Mar-24 07:51N 34°38' E 135°25'0 0.0
2020-Mar-24 07:27N 34°38' E 135°25'0 0.0
2020-Mar-24 05:27N 34°38' E 135°25'0 0.0
2020-Mar-24 04:27N 34°38' E 135°25'0 0.0
2020-Mar-24 01:21N 34°38' E 135°25'0 0.0
2020-Mar-24 00:27N 34°38' E 135°25'0 0.0
2020-Mar-23 23:27N 34°38' E 135°25'0 0.0
2020-Mar-23 21:00N 34°38' E 135°25'0 0.0
2020-Mar-23 19:27N 34°38' E 135°25'0 0.0
2020-Mar-23 13:27N 34°38' E 135°25'0 0.0
2020-Mar-23 12:57N 34°38' E 135°25'0 0.0
2020-Mar-23 11:27N 34°38' E 135°25'0 0.0
2020-Mar-23 10:51N 34°38' E 135°25'0 0.0
2020-Mar-23 09:21N 34°38' E 135°25'0 0.0
2020-Mar-23 08:00N 34°38' E 135°25'0 0.0
2020-Mar-23 05:24N 34°38' E 135°25'0 0.0
2020-Mar-23 04:24N 34°38' E 135°25'  
Track history (hours):
 
Tides and Currents Weather Stations Pressure Air Temp Water Temp Dewpoint Dewpoint Depression Visibility Wind Speed Wind Dir Waves Ship Positions

Superstar Express

Operator: P & O Irish Sea

Last reported at 2020-Apr-02 02:30 UTC. Time now 2020-Apr-02 04:14 UTC.
Position N 34°38' E 135°17'.

Length 183 m; draft 8 m.

Type: Cargo ship. MMSI: 351360000.

Date/timePositionNaut miles runAvg speedWind from/ knotsBaromVisibWave heightAir tempDewpointWater temp
2020-Apr-02 02:30N 34°38' E 135°17'1 2.3
2020-Apr-02 02:00N 34°37' E 135°16'28 9.2
2020-Apr-01 23:01N 34°36' E 134°43'611.6
2020-Apr-01 22:31N 34°40' E 134°47'3 2.8
2020-Apr-01 21:29N 34°43' E 134°49'0 0.0
2020-Apr-01 20:59N 34°43' E 134°49'0 0.0
2020-Apr-01 18:29N 34°43' E 134°49'0 0.0
2020-Apr-01 17:59N 34°43' E 134°49'0 0.0
2020-Apr-01 16:56N 34°43' E 134°49'0 0.0
2020-Apr-01 16:29N 34°43' E 134°49'0 0.0
2020-Apr-01 10:29N 34°43' E 134°49'0 0.0
2020-Apr-01 07:59N 34°43' E 134°49'0 0.0
2020-Apr-01 07:29N 34°43' E 134°49'0 0.0
2020-Mar-31 21:59N 34°43' E 134°49'0 0.0
2020-Mar-31 20:59N 34°43' E 134°49'0 0.0
2020-Mar-31 20:29N 34°43' E 134°49'0 0.0
2020-Mar-31 17:59N 34°43' E 134°49'0 0.0
2020-Mar-31 16:29N 34°43' E 134°49'0 0.0
2020-Mar-31 15:59N 34°43' E 134°49'0 0.0
2020-Mar-31 11:29N 34°43' E 134°49'0 0.0
2020-Mar-31 10:59N 34°43' E 134°49'0 0.0
2020-Mar-31 09:59N 34°43' E 134°49'0 0.0
2020-Mar-31 09:29N 34°43' E 134°49'0 0.0
2020-Mar-31 08:29N 34°43' E 134°49'0 0.0
2020-Mar-31 07:29N 34°43' E 134°49'0 0.0
2020-Mar-31 06:29N 34°43' E 134°49'0 0.0
2020-Mar-31 04:59N 34°43' E 134°49'0 0.0
2020-Mar-31 04:29N 34°43' E 134°49'0 0.0
2020-Mar-31 03:29N 34°43' E 134°49'0 0.0
2020-Mar-31 00:59N 34°43' E 134°49'0 0.0
2020-Mar-30 23:29N 34°43' E 134°49'0 0.0
2020-Mar-30 21:29N 34°43' E 134°49'0 0.0
2020-Mar-30 20:59N 34°43' E 134°49'0 0.0
2020-Mar-30 17:29N 34°43' E 134°49'0 0.0
2020-Mar-30 16:29N 34°43' E 134°49'0 0.0
2020-Mar-30 14:29N 34°43' E 134°49'0 0.0
2020-Mar-30 13:59N 34°43' E 134°49'0 0.0
2020-Mar-30 11:59N 34°43' E 134°49'0 0.0
2020-Mar-30 10:29N 34°43' E 134°49'0 0.0
2020-Mar-30 08:29N 34°43' E 134°49'0 0.0
2020-Mar-30 07:59N 34°43' E 134°49'0 0.0
2020-Mar-30 05:59N 34°43' E 134°49'0 0.0
2020-Mar-30 05:29N 34°43' E 134°49'0 0.0
2020-Mar-30 04:29N 34°43' E 134°49'0 0.0
2020-Mar-30 01:59N 34°43' E 134°49'0 0.0
2020-Mar-30 01:29N 34°43' E 134°49'0 0.0
2020-Mar-29 22:29N 34°43' E 134°49'0 0.0
2020-Mar-29 21:29N 34°43' E 134°49'0 0.0
2020-Mar-29 20:29N 34°43' E 134°49'0 0.0
2020-Mar-29 19:29N 34°43' E 134°49'0 0.0
2020-Mar-29 18:59N 34°43' E 134°49'0 0.0
2020-Mar-29 17:59N 34°43' E 134°49'0 0.0
2020-Mar-29 17:29N 34°43' E 134°49'0 0.0
2020-Mar-29 16:29N 34°43' E 134°49'0 0.0
2020-Mar-29 14:29N 34°43' E 134°49'0 0.0
2020-Mar-29 13:29N 34°43' E 134°49'0 0.0
2020-Mar-29 12:59N 34°43' E 134°49'0 0.0
2020-Mar-29 12:26N 34°43' E 134°49'0 0.0
2020-Mar-29 11:29N 34°43' E 134°49'0 0.0
2020-Mar-29 08:59N 34°43' E 134°49'0 0.0
2020-Mar-29 03:29N 34°43' E 134°49'0 0.0
2020-Mar-29 02:29N 34°43' E 134°49'0 0.0
2020-Mar-28 23:59N 34°43' E 134°49'0 0.0
2020-Mar-28 23:29N 34°43' E 134°49'2 0.9
2020-Mar-28 21:00N 34°41' E 134°47'0 0.0
2020-Mar-28 19:30N 34°41' E 134°47'0 0.0
2020-Mar-28 15:30N 34°41' E 134°47'0 0.0
2020-Mar-28 12:30N 34°41' E 134°47'0 0.1
2020-Mar-28 12:00N 34°41' E 134°47'0 0.0
2020-Mar-28 11:30N 34°41' E 134°47'0 0.0
2020-Mar-28 08:30N 34°41' E 134°47'0 0.0
2020-Mar-28 06:30N 34°41' E 134°47'0 0.0
2020-Mar-28 06:00N 34°41' E 134°47'0 0.0
2020-Mar-28 03:00N 34°41' E 134°47'0 0.1
2020-Mar-28 02:30N 34°41' E 134°47'0 0.0
2020-Mar-28 02:00N 34°41' E 134°47'0 0.0
2020-Mar-28 01:00N 34°41' E 134°47'0 0.0
2020-Mar-27 22:30N 34°41' E 134°47'0 0.0
2020-Mar-27 21:30N 34°41' E 134°47'0 0.0
2020-Mar-27 17:00N 34°41' E 134°47'0 0.0
2020-Mar-27 16:30N 34°41' E 134°47'0 0.0
2020-Mar-27 16:00N 34°41' E 134°47'0 0.1
2020-Mar-27 15:00N 34°41' E 134°47'0 0.1
2020-Mar-27 13:30N 34°41' E 134°47'0 0.0
2020-Mar-27 12:30N 34°41' E 134°47'0 0.0
2020-Mar-27 12:00N 34°41' E 134°47'0 0.1
2020-Mar-27 10:30N 34°41' E 134°47'2 3.6
2020-Mar-27 10:00N 34°40' E 134°48'20 9.8
2020-Mar-27 08:00N 34°36' E 135°11'11 5.6
2020-Mar-27 06:00N 34°38' E 135°25'0 0.0
2020-Mar-27 03:27N 34°38' E 135°25'0 0.0
2020-Mar-26 21:27N 34°38' E 135°25'0 0.0
2020-Mar-26 20:57N 34°38' E 135°25'0 0.0
2020-Mar-26 17:57N 34°38' E 135°25'0 0.0
2020-Mar-26 17:27N 34°38' E 135°25'0 0.0
2020-Mar-26 14:57N 34°38' E 135°25'0 0.0
2020-Mar-26 13:27N 34°38' E 135°25'0 0.0
2020-Mar-26 10:57N 34°38' E 135°25'0 0.0
2020-Mar-26 09:51N 34°38' E 135°25'0 0.0
2020-Mar-26 09:27N 34°38' E 135°25'0 0.0
2020-Mar-26 07:57N 34°38' E 135°25'0 0.0
2020-Mar-26 07:27N 34°38' E 135°25'0 0.0
2020-Mar-26 07:00N 34°38' E 135°25'0 0.0
2020-Mar-26 06:30N 34°38' E 135°25'0 0.0
2020-Mar-26 05:57N 34°38' E 135°25'0 0.0
2020-Mar-26 05:27N 34°38' E 135°25'0 0.0
2020-Mar-26 04:30N 34°38' E 135°25'0 0.0
2020-Mar-26 03:27N 34°38' E 135°25'0 0.0
2020-Mar-25 22:51N 34°38' E 135°25'0 0.0
2020-Mar-25 20:27N 34°38' E 135°25'0 0.0
2020-Mar-25 15:27N 34°38' E 135°25'0 0.0
2020-Mar-25 13:30N 34°38' E 135°25'0 0.0
2020-Mar-25 12:57N 34°38' E 135°25'0 0.0
2020-Mar-25 10:27N 34°38' E 135°25'0 0.0
2020-Mar-25 08:27N 34°38' E 135°25'0 0.0
2020-Mar-25 07:57N 34°38' E 135°25'0 0.0
2020-Mar-25 05:21N 34°38' E 135°25'0 0.0
2020-Mar-25 01:09N 34°38' E 135°25'0 0.0
2020-Mar-25 00:57N 34°38' E 135°25'0 0.0
2020-Mar-25 00:27N 34°38' E 135°25'0 0.0
2020-Mar-24 23:00N 34°38' E 135°25'0 0.0
2020-Mar-24 21:27N 34°38' E 135°25'0 0.0
2020-Mar-24 19:57N 34°38' E 135°25'0 0.0
2020-Mar-24 19:27N 34°38' E 135°25'0 0.0
2020-Mar-24 18:51N 34°38' E 135°25'0 0.0
2020-Mar-24 17:27N 34°38' E 135°25'0 0.0
2020-Mar-24 16:51N 34°38' E 135°25'0 0.0
2020-Mar-24 15:27N 34°38' E 135°25'0 0.0
2020-Mar-24 13:51N 34°38' E 135°25'0 0.0
2020-Mar-24 13:27N 34°38' E 135°25'0 0.0
2020-Mar-24 12:45N 34°38' E 135°25'0 0.0
2020-Mar-24 09:57N 34°38' E 135°25'0 0.0
2020-Mar-24 08:27N 34°38' E 135°25'0 0.0
2020-Mar-24 07:51N 34°38' E 135°25'0 0.0
2020-Mar-24 07:27N 34°38' E 135°25'0 0.0
2020-Mar-24 05:27N 34°38' E 135°25'0 0.0
2020-Mar-24 04:27N 34°38' E 135°25'0 0.0
2020-Mar-24 01:21N 34°38' E 135°25'0 0.0
2020-Mar-24 00:27N 34°38' E 135°25'0 0.0
2020-Mar-23 23:27N 34°38' E 135°25'0 0.0
2020-Mar-23 21:00N 34°38' E 135°25'0 0.0
2020-Mar-23 19:27N 34°38' E 135°25'0 0.0
2020-Mar-23 13:27N 34°38' E 135°25'0 0.0
2020-Mar-23 12:57N 34°38' E 135°25'0 0.0
2020-Mar-23 11:27N 34°38' E 135°25'0 0.0
2020-Mar-23 10:51N 34°38' E 135°25'0 0.0
2020-Mar-23 09:21N 34°38' E 135°25'0 0.0
2020-Mar-23 08:00N 34°38' E 135°25'0 0.0
2020-Mar-23 05:24N 34°38' E 135°25'0 0.0
2020-Mar-23 04:24N 34°38' E 135°25'  

Dump ship's entire track history